sensor_id;sensor_type;location;lat;lon;timestamp;pressure;altitude;pressure_sealevel;temperature;humidity
26859;BME280;14429;48.346;16.338;2022-12-15T00:01:14;98474.44;;;8.12;55.11
26859;BME280;14429;48.346;16.338;2022-12-15T00:03:39;98485.63;;;8.37;55.27
26859;BME280;14429;48.346;16.338;2022-12-15T00:06:05;98494.94;;;8.42;55.17
26859;BME280;14429;48.346;16.338;2022-12-15T00:08:30;98498.06;;;8.15;56.00
26859;BME280;14429;48.346;16.338;2022-12-15T00:10:57;98495.84;;;7.87;54.51
26859;BME280;14429;48.346;16.338;2022-12-15T00:13:25;98504.38;;;8.35;55.37
26859;BME280;14429;48.346;16.338;2022-12-15T00:15:50;98508.00;;;8.34;55.22
26859;BME280;14429;48.346;16.338;2022-12-15T00:18:16;98515.69;;;8.05;54.26
26859;BME280;14429;48.346;16.338;2022-12-15T00:20:41;98516.19;;;8.42;55.38
26859;BME280;14429;48.346;16.338;2022-12-15T00:23:07;98513.00;;;7.94;54.71
26859;BME280;14429;48.346;16.338;2022-12-15T00:25:33;98522.56;;;8.18;55.80
26859;BME280;14429;48.346;16.338;2022-12-15T00:28:00;98533.66;;;8.34;55.48
26859;BME280;14429;48.346;16.338;2022-12-15T00:30:25;98525.22;;;8.07;56.40
26859;BME280;14429;48.346;16.338;2022-12-15T00:32:51;98539.94;;;8.22;55.44
26859;BME280;14429;48.346;16.338;2022-12-15T00:35:16;98540.47;;;8.38;55.85
26859;BME280;14429;48.346;16.338;2022-12-15T00:37:42;98554.56;;;8.49;54.99
26859;BME280;14429;48.346;16.338;2022-12-15T00:40:08;98556.50;;;8.58;54.67
26859;BME280;14429;48.346;16.338;2022-12-15T00:42:33;98560.13;;;8.46;54.85
26859;BME280;14429;48.346;16.338;2022-12-15T00:45:00;98561.09;;;8.34;55.59
26859;BME280;14429;48.346;16.338;2022-12-15T00:47:25;98570.25;;;8.41;55.27
26859;BME280;14429;48.346;16.338;2022-12-15T00:49:51;98571.69;;;8.56;55.08
26859;BME280;14429;48.346;16.338;2022-12-15T00:52:17;98577.72;;;8.26;55.20
26859;BME280;14429;48.346;16.338;2022-12-15T00:54:43;98577.25;;;8.32;55.08
26859;BME280;14429;48.346;16.338;2022-12-15T00:57:08;98586.69;;;8.46;55.21
26859;BME280;14429;48.346;16.338;2022-12-15T00:59:34;98605.50;;;8.54;54.87
26859;BME280;14429;48.346;16.338;2022-12-15T01:02:01;98598.25;;;8.56;54.85
26859;BME280;14429;48.346;16.338;2022-12-15T01:04:27;98597.66;;;8.53;54.93
26859;BME280;14429;48.346;16.338;2022-12-15T01:06:53;98594.66;;;8.57;54.93
26859;BME280;14429;48.346;16.338;2022-12-15T01:09:18;98594.38;;;8.60;54.67
26859;BME280;14429;48.346;16.338;2022-12-15T01:11:44;98593.91;;;8.55;54.88
26859;BME280;14429;48.346;16.338;2022-12-15T01:14:10;98599.00;;;8.58;54.67
26859;BME280;14429;48.346;16.338;2022-12-15T01:16:35;98584.75;;;8.59;54.74
26859;BME280;14429;48.346;16.338;2022-12-15T01:19:02;98584.72;;;8.48;55.06
26859;BME280;14429;48.346;16.338;2022-12-15T01:21:30;98585.09;;;8.55;54.58
26859;BME280;14429;48.346;16.338;2022-12-15T01:23:56;98569.53;;;8.39;55.29
26859;BME280;14429;48.346;16.338;2022-12-15T01:26:21;98570.13;;;8.43;55.30
26859;BME280;14429;48.346;16.338;2022-12-15T01:28:47;98578.56;;;8.48;55.07
26859;BME280;14429;48.346;16.338;2022-12-15T01:31:12;98587.91;;;8.53;54.89
26859;BME280;14429;48.346;16.338;2022-12-15T01:33:38;98595.00;;;8.63;54.64
26859;BME280;14429;48.346;16.338;2022-12-15T01:36:05;98593.53;;;8.60;54.47
26859;BME280;14429;48.346;16.338;2022-12-15T01:38:31;98590.03;;;8.48;55.24
26859;BME280;14429;48.346;16.338;2022-12-15T01:40:58;98591.25;;;8.55;55.07
26859;BME280;14429;48.346;16.338;2022-12-15T01:43:26;98595.13;;;8.62;54.67
26859;BME280;14429;48.346;16.338;2022-12-15T01:45:56;98599.47;;;8.63;54.69
26859;BME280;14429;48.346;16.338;2022-12-15T01:48:26;98619.03;;;8.73;54.20
26859;BME280;14429;48.346;16.338;2022-12-15T01:50:59;98614.47;;;8.64;54.53
26859;BME280;14429;48.346;16.338;2022-12-15T01:53:30;98613.50;;;8.65;54.42
26859;BME280;14429;48.346;16.338;2022-12-15T01:55:57;98620.38;;;8.57;54.66
26859;BME280;14429;48.346;16.338;2022-12-15T01:58:23;98606.50;;;8.64;54.48
26859;BME280;14429;48.346;16.338;2022-12-15T02:00:49;98607.94;;;8.68;54.52
26859;BME280;14429;48.346;16.338;2022-12-15T02:03:14;98625.56;;;8.69;54.21
26859;BME280;14429;48.346;16.338;2022-12-15T02:05:40;98623.97;;;8.56;54.77
26859;BME280;14429;48.346;16.338;2022-12-15T02:08:06;98618.41;;;8.37;54.73
26859;BME280;14429;48.346;16.338;2022-12-15T02:10:43;98606.69;;;8.39;55.09
26859;BME280;14429;48.346;16.338;2022-12-15T02:13:14;98619.63;;;8.55;55.13
26859;BME280;14429;48.346;16.338;2022-12-15T02:15:45;98609.75;;;8.01;54.60
26859;BME280;14429;48.346;16.338;2022-12-15T02:18:18;98603.31;;;8.37;55.03
26859;BME280;14429;48.346;16.338;2022-12-15T02:20:51;98627.59;;;8.55;55.18
26859;BME280;14429;48.346;16.338;2022-12-15T02:24:01;98628.94;;;8.49;54.95
26859;BME280;14429;48.346;16.338;2022-12-15T02:27:12;98625.66;;;8.35;55.23
26859;BME280;14429;48.346;16.338;2022-12-15T02:32:42;98634.44;;;8.25;54.41
26859;BME280;14429;48.346;16.338;2022-12-15T02:35:12;98633.47;;;8.36;55.72
26859;BME280;14429;48.346;16.338;2022-12-15T02:37:40;98639.81;;;7.89;56.04
26859;BME280;14429;48.346;16.338;2022-12-15T02:40:09;98638.41;;;8.30;55.92
26859;BME280;14429;48.346;16.338;2022-12-15T02:42:38;98649.63;;;8.33;56.10
26859;BME280;14429;48.346;16.338;2022-12-15T02:45:08;98641.47;;;8.47;55.50
26859;BME280;14429;48.346;16.338;2022-12-15T02:47:39;98648.47;;;8.48;55.47
26859;BME280;14429;48.346;16.338;2022-12-15T02:50:20;98656.69;;;8.45;55.45
26859;BME280;14429;48.346;16.338;2022-12-15T02:53:01;98648.47;;;8.48;55.22
26859;BME280;14429;48.346;16.338;2022-12-15T02:55:37;98662.25;;;8.53;55.06
26859;BME280;14429;48.346;16.338;2022-12-15T02:58:13;98679.13;;;8.52;55.34
26859;BME280;14429;48.346;16.338;2022-12-15T03:00:43;98679.88;;;8.54;54.85
26859;BME280;14429;48.346;16.338;2022-12-15T03:03:13;98675.50;;;8.42;55.62
26859;BME280;14429;48.346;16.338;2022-12-15T03:05:40;98683.25;;;8.45;55.62
26859;BME280;14429;48.346;16.338;2022-12-15T03:08:06;98678.16;;;8.42;55.33
26859;BME280;14429;48.346;16.338;2022-12-15T03:10:31;98679.97;;;8.42;55.46
26859;BME280;14429;48.346;16.338;2022-12-15T03:12:56;98687.47;;;8.48;55.18
26859;BME280;14429;48.346;16.338;2022-12-15T03:15:22;98702.53;;;8.36;55.38
26859;BME280;14429;48.346;16.338;2022-12-15T03:17:47;98702.28;;;8.39;55.48
26859;BME280;14429;48.346;16.338;2022-12-15T03:20:14;98697.97;;;8.49;55.29
26859;BME280;14429;48.346;16.338;2022-12-15T03:22:40;98694.34;;;8.50;55.46
26859;BME280;14429;48.346;16.338;2022-12-15T03:25:06;98697.72;;;8.52;54.96
26859;BME280;14429;48.346;16.338;2022-12-15T03:27:31;98702.09;;;8.53;54.96
26859;BME280;14429;48.346;16.338;2022-12-15T03:29:57;98706.66;;;8.51;55.33
26859;BME280;14429;48.346;16.338;2022-12-15T03:32:22;98705.66;;;8.41;55.63
26859;BME280;14429;48.346;16.338;2022-12-15T03:34:47;98703.28;;;8.49;55.40
26859;BME280;14429;48.346;16.338;2022-12-15T03:37:14;98709.19;;;8.53;55.00
26859;BME280;14429;48.346;16.338;2022-12-15T03:39:40;98721.88;;;8.60;54.69
26859;BME280;14429;48.346;16.338;2022-12-15T03:42:05;98732.78;;;8.57;54.71
26859;BME280;14429;48.346;16.338;2022-12-15T03:44:30;98731.31;;;8.53;55.12
26859;BME280;14429;48.346;16.338;2022-12-15T03:46:56;98728.63;;;8.42;55.28
26859;BME280;14429;48.346;16.338;2022-12-15T03:49:21;98736.06;;;8.37;55.65
26859;BME280;14429;48.346;16.338;2022-12-15T03:51:47;98743.63;;;8.54;55.24
26859;BME280;14429;48.346;16.338;2022-12-15T03:54:14;98744.63;;;8.64;54.41
26859;BME280;14429;48.346;16.338;2022-12-15T03:56:39;98742.41;;;8.58;55.25
26859;BME280;14429;48.346;16.338;2022-12-15T03:59:05;98761.50;;;8.63;54.71
26859;BME280;14429;48.346;16.338;2022-12-15T04:01:32;98753.28;;;8.55;55.04
26859;BME280;14429;48.346;16.338;2022-12-15T04:03:58;98766.56;;;8.55;55.18
26859;BME280;14429;48.346;16.338;2022-12-15T04:06:24;98769.25;;;8.66;54.66
26859;BME280;14429;48.346;16.338;2022-12-15T04:08:49;98770.91;;;8.56;55.00
26859;BME280;14429;48.346;16.338;2022-12-15T04:11:17;98773.81;;;8.53;54.99
26859;BME280;14429;48.346;16.338;2022-12-15T04:13:42;98796.25;;;8.60;55.14
26859;BME280;14429;48.346;16.338;2022-12-15T04:16:08;98784.16;;;8.56;55.21
26859;BME280;14429;48.346;16.338;2022-12-15T04:18:34;98784.56;;;8.62;55.15
26859;BME280;14429;48.346;16.338;2022-12-15T04:20:59;98795.53;;;8.58;54.02
26859;BME280;14429;48.346;16.338;2022-12-15T04:23:25;98819.69;;;8.55;54.99
26859;BME280;14429;48.346;16.338;2022-12-15T04:25:50;98805.69;;;8.53;55.34
26859;BME280;14429;48.346;16.338;2022-12-15T04:28:17;98813.28;;;8.58;54.82
26859;BME280;14429;48.346;16.338;2022-12-15T04:30:45;98813.16;;;8.59;55.34
26859;BME280;14429;48.346;16.338;2022-12-15T04:33:12;98805.19;;;8.59;54.93
26859;BME280;14429;48.346;16.338;2022-12-15T04:35:37;98808.34;;;8.53;55.03
26859;BME280;14429;48.346;16.338;2022-12-15T04:38:03;98810.72;;;8.56;55.17
26859;BME280;14429;48.346;16.338;2022-12-15T04:40:28;98817.03;;;8.55;55.52
26859;BME280;14429;48.346;16.338;2022-12-15T04:42:54;98813.13;;;8.48;55.55
26859;BME280;14429;48.346;16.338;2022-12-15T04:45:22;98808.56;;;8.50;55.31
26859;BME280;14429;48.346;16.338;2022-12-15T04:47:48;98816.94;;;8.57;55.30
26859;BME280;14429;48.346;16.338;2022-12-15T04:50:14;98814.28;;;8.67;54.92
26859;BME280;14429;48.346;16.338;2022-12-15T04:52:39;98815.59;;;8.62;54.92
26859;BME280;14429;48.346;16.338;2022-12-15T04:55:05;98816.78;;;8.58;54.98
26859;BME280;14429;48.346;16.338;2022-12-15T04:57:30;98821.88;;;8.61;55.03
26859;BME280;14429;48.346;16.338;2022-12-15T04:59:56;98822.22;;;8.57;55.20
26859;BME280;14429;48.346;16.338;2022-12-15T05:02:23;98826.44;;;8.59;55.35
26859;BME280;14429;48.346;16.338;2022-12-15T05:04:48;98827.28;;;8.60;54.77
26859;BME280;14429;48.346;16.338;2022-12-15T05:07:13;98825.97;;;8.54;55.44
26859;BME280;14429;48.346;16.338;2022-12-15T05:09:40;98833.69;;;8.57;55.34
26859;BME280;14429;48.346;16.338;2022-12-15T05:12:06;98840.81;;;8.57;55.08
26859;BME280;14429;48.346;16.338;2022-12-15T05:14:31;98839.00;;;8.57;55.31
26859;BME280;14429;48.346;16.338;2022-12-15T05:16:57;98843.00;;;8.62;54.63
26859;BME280;14429;48.346;16.338;2022-12-15T05:19:23;98842.59;;;8.56;55.17
26859;BME280;14429;48.346;16.338;2022-12-15T05:21:49;98839.19;;;8.43;55.68
26859;BME280;14429;48.346;16.338;2022-12-15T05:24:14;98847.28;;;8.53;55.26
26859;BME280;14429;48.346;16.338;2022-12-15T05:26:40;98852.38;;;8.56;55.33
26859;BME280;14429;48.346;16.338;2022-12-15T05:29:05;98851.78;;;8.52;55.41
26859;BME280;14429;48.346;16.338;2022-12-15T05:31:30;98842.00;;;8.30;55.27
26859;BME280;14429;48.346;16.338;2022-12-15T05:33:56;98854.00;;;8.35;55.77
26859;BME280;14429;48.346;16.338;2022-12-15T05:36:23;98860.66;;;8.40;55.93
26859;BME280;14429;48.346;16.338;2022-12-15T05:38:49;98865.38;;;8.48;55.38
26859;BME280;14429;48.346;16.338;2022-12-15T05:41:15;98869.16;;;8.56;55.19
26859;BME280;14429;48.346;16.338;2022-12-15T05:43:41;98874.03;;;8.62;54.59
26859;BME280;14429;48.346;16.338;2022-12-15T05:46:06;98876.19;;;8.57;55.01
26859;BME280;14429;48.346;16.338;2022-12-15T05:48:32;98875.50;;;8.66;55.15
26859;BME280;14429;48.346;16.338;2022-12-15T05:51:02;98883.19;;;8.58;55.21
26859;BME280;14429;48.346;16.338;2022-12-15T05:53:28;98887.75;;;8.56;55.59
26859;BME280;14429;48.346;16.338;2022-12-15T05:56:00;98891.66;;;8.63;54.77
26859;BME280;14429;48.346;16.338;2022-12-15T05:58:25;98892.84;;;8.59;54.79
26859;BME280;14429;48.346;16.338;2022-12-15T06:00:51;98897.66;;;8.54;55.21
26859;BME280;14429;48.346;16.338;2022-12-15T06:03:16;98895.50;;;8.59;55.10
26859;BME280;14429;48.346;16.338;2022-12-15T06:05:42;98895.50;;;8.59;55.46
26859;BME280;14429;48.346;16.338;2022-12-15T06:08:07;98897.72;;;8.65;55.15
26859;BME280;14429;48.346;16.338;2022-12-15T06:10:34;98896.53;;;8.69;54.37
26859;BME280;14429;48.346;16.338;2022-12-15T06:12:59;98907.59;;;8.63;55.21
26859;BME280;14429;48.346;16.338;2022-12-15T06:15:25;98908.69;;;8.61;55.29
26859;BME280;14429;48.346;16.338;2022-12-15T06:17:50;98905.84;;;8.51;55.20
26859;BME280;14429;48.346;16.338;2022-12-15T06:20:15;98914.78;;;8.50;55.52
26859;BME280;14429;48.346;16.338;2022-12-15T06:22:41;98917.03;;;8.67;54.70
26859;BME280;14429;48.346;16.338;2022-12-15T06:25:07;98917.03;;;8.67;54.56
26859;BME280;14429;48.346;16.338;2022-12-15T06:27:35;98920.16;;;8.61;55.25
26859;BME280;14429;48.346;16.338;2022-12-15T06:30:01;98927.59;;;8.56;55.17
26859;BME280;14429;48.346;16.338;2022-12-15T06:32:26;98918.44;;;8.60;55.28
26859;BME280;14429;48.346;16.338;2022-12-15T06:34:51;98928.84;;;8.63;55.00
26859;BME280;14429;48.346;16.338;2022-12-15T06:37:17;98934.63;;;8.57;55.40
26859;BME280;14429;48.346;16.338;2022-12-15T06:39:42;98931.22;;;8.55;55.34
26859;BME280;14429;48.346;16.338;2022-12-15T06:42:08;98931.44;;;8.52;55.49
26859;BME280;14429;48.346;16.338;2022-12-15T06:44:34;98935.81;;;8.53;55.69
26859;BME280;14429;48.346;16.338;2022-12-15T06:47:00;98940.28;;;8.17;55.68
26859;BME280;14429;48.346;16.338;2022-12-15T06:49:25;98955.34;;;8.17;55.84
26859;BME280;14429;48.346;16.338;2022-12-15T06:51:51;98946.44;;;8.18;56.30
26859;BME280;14429;48.346;16.338;2022-12-15T06:54:16;98954.69;;;8.26;56.21
26859;BME280;14429;48.346;16.338;2022-12-15T06:56:42;98957.00;;;8.42;56.09
26859;BME280;14429;48.346;16.338;2022-12-15T06:59:08;98963.09;;;8.55;55.52
26859;BME280;14429;48.346;16.338;2022-12-15T07:01:36;98976.88;;;8.60;54.97
26859;BME280;14429;48.346;16.338;2022-12-15T07:04:01;98981.91;;;8.52;55.75
26859;BME280;14429;48.346;16.338;2022-12-15T07:06:27;98978.06;;;8.56;55.18
26859;BME280;14429;48.346;16.338;2022-12-15T07:08:56;98996.47;;;8.59;55.28
26859;BME280;14429;48.346;16.338;2022-12-15T07:11:21;98984.66;;;8.63;55.39
26859;BME280;14429;48.346;16.338;2022-12-15T07:13:48;98999.19;;;8.70;54.50
26859;BME280;14429;48.346;16.338;2022-12-15T07:16:13;98994.75;;;8.58;55.35
26859;BME280;14429;48.346;16.338;2022-12-15T07:18:40;98997.00;;;8.64;55.05
26859;BME280;14429;48.346;16.338;2022-12-15T07:21:07;98990.94;;;8.62;55.37
26859;BME280;14429;48.346;16.338;2022-12-15T07:23:33;98980.72;;;8.56;55.49
26859;BME280;14429;48.346;16.338;2022-12-15T07:26:01;98989.03;;;8.64;55.07
26859;BME280;14429;48.346;16.338;2022-12-15T07:28:27;98981.47;;;8.58;55.11
26859;BME280;14429;48.346;16.338;2022-12-15T07:30:52;98973.72;;;8.55;55.62
26859;BME280;14429;48.346;16.338;2022-12-15T07:33:17;98982.25;;;8.48;55.59
26859;BME280;14429;48.346;16.338;2022-12-15T07:35:52;98987.97;;;8.54;55.56
26859;BME280;14429;48.346;16.338;2022-12-15T07:38:18;98993.06;;;8.57;55.29
26859;BME280;14429;48.346;16.338;2022-12-15T07:40:43;98983.09;;;8.48;55.12
26859;BME280;14429;48.346;16.338;2022-12-15T07:43:08;98974.22;;;8.25;56.44
26859;BME280;14429;48.346;16.338;2022-12-15T07:45:34;98996.91;;;8.53;55.55
26859;BME280;14429;48.346;16.338;2022-12-15T07:47:59;99019.41;;;8.60;55.52
26859;BME280;14429;48.346;16.338;2022-12-15T07:50:25;99028.88;;;8.64;55.24
26859;BME280;14429;48.346;16.338;2022-12-15T07:52:51;99020.06;;;8.51;55.25
26859;BME280;14429;48.346;16.338;2022-12-15T07:55:17;99028.50;;;8.45;55.38
26859;BME280;14429;48.346;16.338;2022-12-15T07:57:42;99037.25;;;8.58;55.51
26859;BME280;14429;48.346;16.338;2022-12-15T08:00:08;99017.63;;;8.48;55.33
26859;BME280;14429;48.346;16.338;2022-12-15T08:02:34;99027.34;;;8.25;55.89
26859;BME280;14429;48.346;16.338;2022-12-15T08:04:59;99047.69;;;8.49;55.65
26859;BME280;14429;48.346;16.338;2022-12-15T08:07:24;99045.44;;;8.55;55.14
26859;BME280;14429;48.346;16.338;2022-12-15T08:09:51;99053.63;;;8.52;55.26
26859;BME280;14429;48.346;16.338;2022-12-15T08:12:17;99077.31;;;8.55;55.55
26859;BME280;14429;48.346;16.338;2022-12-15T08:14:42;99076.34;;;8.56;55.38
26859;BME280;14429;48.346;16.338;2022-12-15T08:17:07;99089.34;;;8.48;55.71
26859;BME280;14429;48.346;16.338;2022-12-15T08:19:33;99073.41;;;8.48;55.42
26859;BME280;14429;48.346;16.338;2022-12-15T08:21:58;99076.47;;;8.55;55.31
26859;BME280;14429;48.346;16.338;2022-12-15T08:24:24;99061.09;;;8.47;55.83
26859;BME280;14429;48.346;16.338;2022-12-15T08:26:51;99057.22;;;7.78;54.38
26859;BME280;14429;48.346;16.338;2022-12-15T08:29:16;99065.66;;;8.33;56.25
26859;BME280;14429;48.346;16.338;2022-12-15T08:31:41;99077.00;;;8.47;55.75
26859;BME280;14429;48.346;16.338;2022-12-15T08:34:08;99098.78;;;8.52;55.70
26859;BME280;14429;48.346;16.338;2022-12-15T08:36:34;99093.25;;;8.55;56.03
26859;BME280;14429;48.346;16.338;2022-12-15T08:39:00;99095.72;;;8.58;55.77
26859;BME280;14429;48.346;16.338;2022-12-15T08:41:26;99092.22;;;8.58;55.60
26859;BME280;14429;48.346;16.338;2022-12-15T08:43:54;99088.25;;;8.63;54.80
26859;BME280;14429;48.346;16.338;2022-12-15T08:46:22;99097.94;;;8.64;55.20
26859;BME280;14429;48.346;16.338;2022-12-15T08:48:49;99109.97;;;8.57;55.45
26859;BME280;14429;48.346;16.338;2022-12-15T08:51:15;99101.53;;;8.63;55.42
26859;BME280;14429;48.346;16.338;2022-12-15T08:53:41;99114.81;;;8.63;55.43
26859;BME280;14429;48.346;16.338;2022-12-15T08:56:08;99102.50;;;8.62;54.85
26859;BME280;14429;48.346;16.338;2022-12-15T08:58:34;99100.69;;;8.62;55.06
26859;BME280;14429;48.346;16.338;2022-12-15T09:01:02;99100.59;;;8.64;55.29
26859;BME280;14429;48.346;16.338;2022-12-15T09:03:28;99098.91;;;8.51;55.43
26859;BME280;14429;48.346;16.338;2022-12-15T09:05:54;99116.53;;;8.64;55.20
26859;BME280;14429;48.346;16.338;2022-12-15T09:08:19;99116.00;;;8.71;55.15
26859;BME280;14429;48.346;16.338;2022-12-15T09:10:45;99119.25;;;8.75;54.72
26859;BME280;14429;48.346;16.338;2022-12-15T09:13:10;99107.81;;;8.62;55.14
26859;BME280;14429;48.346;16.338;2022-12-15T09:15:36;99112.91;;;8.65;54.98
26859;BME280;14429;48.346;16.338;2022-12-15T09:18:03;99111.94;;;8.66;55.06
26859;BME280;14429;48.346;16.338;2022-12-15T09:20:28;99121.19;;;8.73;54.97
26859;BME280;14429;48.346;16.338;2022-12-15T09:22:53;99120.59;;;8.57;54.92
26859;BME280;14429;48.346;16.338;2022-12-15T09:25:19;99113.13;;;8.62;55.27
26859;BME280;14429;48.346;16.338;2022-12-15T09:27:44;99105.91;;;8.64;55.55
26859;BME280;14429;48.346;16.338;2022-12-15T09:30:10;99107.41;;;8.68;55.06
26859;BME280;14429;48.346;16.338;2022-12-15T09:32:36;99115.03;;;8.72;55.21
26859;BME280;14429;48.346;16.338;2022-12-15T09:35:03;99115.44;;;8.79;54.71
26859;BME280;14429;48.346;16.338;2022-12-15T09:37:29;99108.63;;;8.75;54.80
26859;BME280;14429;48.346;16.338;2022-12-15T09:39:55;99102.16;;;8.66;55.26
26859;BME280;14429;48.346;16.338;2022-12-15T09:42:24;99105.47;;;8.70;55.12
26859;BME280;14429;48.346;16.338;2022-12-15T09:44:57;99103.56;;;8.72;55.15
26859;BME280;14429;48.346;16.338;2022-12-15T09:47:32;99110.44;;;8.74;55.07
26859;BME280;14429;48.346;16.338;2022-12-15T09:50:03;99118.56;;;8.48;54.30
26859;BME280;14429;48.346;16.338;2022-12-15T09:52:31;99119.50;;;8.60;55.14
26859;BME280;14429;48.346;16.338;2022-12-15T09:54:57;99124.41;;;8.53;55.44
26859;BME280;14429;48.346;16.338;2022-12-15T09:57:30;99132.69;;;8.61;55.41
26859;BME280;14429;48.346;16.338;2022-12-15T10:00:04;99130.78;;;8.38;55.67
26859;BME280;14429;48.346;16.338;2022-12-15T10:05:35;99127.16;;;8.64;55.67
26859;BME280;14429;48.346;16.338;2022-12-15T10:08:02;99132.69;;;8.61;55.89
26859;BME280;14429;48.346;16.338;2022-12-15T10:10:31;99133.97;;;8.68;55.64
26859;BME280;14429;48.346;16.338;2022-12-15T10:13:02;99133.50;;;8.74;55.03
26859;BME280;14429;48.346;16.338;2022-12-15T10:15:38;99119.75;;;8.57;55.45
26859;BME280;14429;48.346;16.338;2022-12-15T10:18:10;99118.56;;;8.61;55.62
26859;BME280;14429;48.346;16.338;2022-12-15T10:20:43;99129.72;;;8.53;55.48
26859;BME280;14429;48.346;16.338;2022-12-15T10:23:11;99130.31;;;7.43;56.81
26859;BME280;14429;48.346;16.338;2022-12-15T10:25:37;99120.41;;;7.07;59.64
26859;BME280;14429;48.346;16.338;2022-12-15T10:28:11;99107.41;;;6.76;60.39
26859;BME280;14429;48.346;16.338;2022-12-15T10:30:50;99102.66;;;7.21;58.79
26859;BME280;14429;48.346;16.338;2022-12-15T10:33:21;99100.31;;;7.17;58.17
26859;BME280;14429;48.346;16.338;2022-12-15T10:35:50;99099.28;;;6.66;60.18
26859;BME280;14429;48.346;16.338;2022-12-15T10:38:24;99096.66;;;6.38;61.80
26859;BME280;14429;48.346;16.338;2022-12-15T10:40:52;99102.44;;;6.45;60.37
26859;BME280;14429;48.346;16.338;2022-12-15T10:43:30;99115.53;;;6.05;63.07
26859;BME280;14429;48.346;16.338;2022-12-15T10:46:01;99112.53;;;6.66;62.18
26859;BME280;14429;48.346;16.338;2022-12-15T10:48:27;99119.06;;;7.14;60.67
26859;BME280;14429;48.346;16.338;2022-12-15T10:51:12;99128.50;;;6.78;60.41
26859;BME280;14429;48.346;16.338;2022-12-15T10:53:41;99128.59;;;6.35;61.50
26859;BME280;14429;48.346;16.338;2022-12-15T10:56:07;99141.28;;;6.58;60.45
26859;BME280;14429;48.346;16.338;2022-12-15T10:58:45;99136.72;;;6.73;60.58
26859;BME280;14429;48.346;16.338;2022-12-15T11:01:16;99128.44;;;6.52;60.96
26859;BME280;14429;48.346;16.338;2022-12-15T11:03:41;99132.97;;;6.22;61.29
26859;BME280;14429;48.346;16.338;2022-12-15T11:06:14;99126.06;;;5.77;62.58
26859;BME280;14429;48.346;16.338;2022-12-15T11:08:41;99116.84;;;5.40;64.09
26859;BME280;14429;48.346;16.338;2022-12-15T11:11:23;99116.63;;;5.43;64.60
26859;BME280;14429;48.346;16.338;2022-12-15T11:14:04;99112.22;;;5.28;66.43
26859;BME280;14429;48.346;16.338;2022-12-15T11:16:30;99119.00;;;5.47;66.15
26859;BME280;14429;48.346;16.338;2022-12-15T11:19:01;99118.00;;;5.50;64.90
26859;BME280;14429;48.346;16.338;2022-12-15T11:21:33;99128.06;;;5.43;65.50
26859;BME280;14429;48.346;16.338;2022-12-15T11:24:04;99120.22;;;5.42;65.08
26859;BME280;14429;48.346;16.338;2022-12-15T11:26:39;99120.84;;;5.76;65.35
26859;BME280;14429;48.346;16.338;2022-12-15T11:29:16;99118.19;;;6.05;64.11
26859;BME280;14429;48.346;16.338;2022-12-15T11:31:44;99120.78;;;5.91;64.76
26859;BME280;14429;48.346;16.338;2022-12-15T11:34:12;99118.09;;;6.20;63.82
26859;BME280;14429;48.346;16.338;2022-12-15T11:36:52;99114.69;;;6.18;63.31
26859;BME280;14429;48.346;16.338;2022-12-15T11:39:32;99106.84;;;6.72;62.89
26859;BME280;14429;48.346;16.338;2022-12-15T11:42:08;99106.84;;;6.72;61.95
26859;BME280;14429;48.346;16.338;2022-12-15T11:44:41;99098.00;;;6.85;61.04
26859;BME280;14429;48.346;16.338;2022-12-15T11:47:21;99115.75;;;6.43;61.23
26859;BME280;14429;48.346;16.338;2022-12-15T11:50:06;99116.13;;;6.65;61.77
26859;BME280;14429;48.346;16.338;2022-12-15T11:52:58;99124.53;;;6.57;60.27
26859;BME280;14429;48.346;16.338;2022-12-15T11:55:32;99119.13;;;6.72;60.51
26859;BME280;14429;48.346;16.338;2022-12-15T11:58:16;99116.56;;;6.85;59.38
26859;BME280;14429;48.346;16.338;2022-12-15T12:00:49;99111.19;;;6.59;60.28
26859;BME280;14429;48.346;16.338;2022-12-15T12:03:25;99116.09;;;5.96;61.68
26859;BME280;14429;48.346;16.338;2022-12-15T12:06:01;99114.16;;;6.27;62.68
26859;BME280;14429;48.346;16.338;2022-12-15T12:08:45;99109.31;;;5.48;63.79
26859;BME280;14429;48.346;16.338;2022-12-15T12:11:15;99102.38;;;5.61;64.27
26859;BME280;14429;48.346;16.338;2022-12-15T12:13:51;99101.41;;;5.62;63.70
26859;BME280;14429;48.346;16.338;2022-12-15T12:16:27;99101.25;;;5.64;63.90
26859;BME280;14429;48.346;16.338;2022-12-15T12:18:56;99103.16;;;6.05;62.26
26859;BME280;14429;48.346;16.338;2022-12-15T12:21:27;99108.19;;;5.52;63.87
26859;BME280;14429;48.346;16.338;2022-12-15T12:23:58;99109.91;;;6.11;64.21
26859;BME280;14429;48.346;16.338;2022-12-15T12:26:29;99119.00;;;5.91;62.98
26859;BME280;14429;48.346;16.338;2022-12-15T12:29:02;99120.09;;;6.17;62.97
26859;BME280;14429;48.346;16.338;2022-12-15T12:31:40;99113.19;;;6.28;62.97
26859;BME280;14429;48.346;16.338;2022-12-15T12:34:11;99111.56;;;5.98;62.89
26859;BME280;14429;48.346;16.338;2022-12-15T12:36:39;99111.56;;;5.98;62.78
26859;BME280;14429;48.346;16.338;2022-12-15T12:39:15;99109.88;;;6.24;63.08
26859;BME280;14429;48.346;16.338;2022-12-15T12:41:45;99109.25;;;5.78;64.37
26859;BME280;14429;48.346;16.338;2022-12-15T12:44:23;99110.34;;;5.45;63.89
26859;BME280;14429;48.346;16.338;2022-12-15T12:46:52;99103.63;;;5.98;64.30
26859;BME280;14429;48.346;16.338;2022-12-15T12:49:25;99105.56;;;5.65;63.41
26859;BME280;14429;48.346;16.338;2022-12-15T12:51:54;99099.38;;;5.66;64.99
26859;BME280;14429;48.346;16.338;2022-12-15T12:54:42;99111.97;;;6.19;64.14
26859;BME280;14429;48.346;16.338;2022-12-15T12:57:35;99117.75;;;6.26;63.47
26859;BME280;14429;48.346;16.338;2022-12-15T13:02:53;99143.88;;;6.99;61.74
26859;BME280;14429;48.346;16.338;2022-12-15T13:05:27;99143.06;;;7.25;61.14
26859;BME280;14429;48.346;16.338;2022-12-15T13:07:55;99145.63;;;7.52;60.24
26859;BME280;14429;48.346;16.338;2022-12-15T13:10:24;99148.69;;;7.46;59.52
26859;BME280;14429;48.346;16.338;2022-12-15T13:12:50;99148.91;;;7.29;59.86
26859;BME280;14429;48.346;16.338;2022-12-15T13:15:28;99157.63;;;7.31;60.10